createdAt,value
2018-04-24T00:00:07.397Z,6.40
2018-04-24T00:02:35.673Z,5.77
2018-04-24T00:05:03.940Z,5.80
2018-04-24T00:07:32.933Z,7.00
2018-04-24T00:10:01.157Z,6.47
2018-04-24T00:12:29.434Z,6.03
2018-04-24T00:14:58.436Z,5.60
2018-04-24T00:17:27.446Z,5.67
2018-04-24T00:19:56.454Z,5.60
2018-04-24T00:22:25.449Z,5.80
2018-04-24T00:24:54.460Z,5.63
2018-04-24T00:27:23.436Z,5.43
2018-04-24T00:29:51.683Z,6.03
2018-04-24T00:32:19.885Z,5.70
2018-04-24T00:34:48.116Z,5.43
2018-04-24T00:37:16.416Z,6.03
2018-04-24T00:39:45.414Z,6.33
2018-04-24T00:42:13.634Z,5.80
2018-04-24T00:44:41.856Z,6.23
2018-04-24T00:47:10.106Z,6.93
2018-04-24T00:49:39.121Z,7.07
2018-04-24T00:52:07.422Z,7.37
2018-04-24T00:54:35.656Z,7.00
2018-04-24T00:57:03.869Z,7.00
2018-04-24T00:59:32.845Z,7.10
2018-04-24T01:02:01.074Z,6.83
2018-04-24T01:04:29.294Z,7.83
2018-04-24T01:06:57.532Z,7.13
2018-04-24T01:09:26.536Z,7.20
2018-04-24T01:11:55.529Z,7.43
2018-04-24T01:14:23.774Z,7.57
2018-04-24T01:16:52.026Z,7.43
2018-04-24T01:19:20.999Z,8.33
2018-04-24T01:21:49.217Z,7.70
2018-04-24T01:24:18.197Z,8.20
2018-04-24T01:26:46.437Z,8.17
2018-04-24T01:29:14.681Z,8.50
2018-04-24T01:31:42.911Z,8.17
2018-04-24T01:34:11.133Z,9.13
2018-04-24T01:36:39.379Z,8.80
2018-04-24T01:39:07.634Z,9.67
2018-04-24T01:41:36.289Z,8.47
2018-04-24T01:44:04.499Z,9.10
2018-04-24T01:46:32.716Z,9.00
2018-04-24T01:49:01.714Z,9.03
2018-04-24T01:51:29.932Z,8.77
2018-04-24T01:53:58.193Z,8.60
2018-04-24T01:56:27.190Z,9.37
2018-04-24T01:58:55.405Z,9.40
2018-04-24T02:01:23.633Z,8.83
2018-04-24T02:03:52.000Z,9.30
2018-04-24T02:06:20.975Z,10.30
2018-04-24T02:08:49.986Z,12.23
2018-04-24T02:11:18.984Z,12.10
2018-04-24T02:13:47.214Z,12.40
2018-04-24T02:16:15.440Z,9.90
2018-04-24T02:18:43.687Z,10.57
2018-04-24T02:21:11.971Z,8.43
2018-04-24T02:23:40.196Z,8.60
2018-04-24T02:26:08.451Z,8.30
2018-04-24T02:28:36.687Z,7.77
2018-04-24T02:31:04.993Z,9.13
2018-04-24T02:33:33.990Z,7.77
2018-04-24T02:36:02.280Z,7.73
2018-04-24T02:38:30.503Z,7.43
2018-04-24T02:40:58.723Z,7.17
2018-04-24T02:43:26.956Z,7.87
2018-04-24T02:45:55.952Z,7.40
2018-04-24T02:48:24.967Z,6.97
2018-04-24T02:50:53.966Z,7.10
2018-04-24T02:53:22.965Z,7.20
2018-04-24T02:55:51.195Z,6.97
2018-04-24T02:58:19.405Z,6.97
2018-04-24T03:00:47.647Z,6.40
2018-04-24T03:03:16.640Z,6.90
2018-04-24T03:05:44.853Z,6.10
2018-04-24T03:08:13.090Z,6.30
2018-04-24T03:10:41.374Z,6.80
2018-04-24T03:13:10.299Z,6.20
2018-04-24T03:15:38.534Z,6.03
2018-04-24T03:18:06.771Z,6.17
2018-04-24T03:20:34.994Z,5.43
2018-04-24T03:23:03.205Z,5.20
2018-04-24T03:25:31.443Z,6.03
2018-04-24T03:27:59.676Z,5.83
2018-04-24T03:30:27.905Z,5.83
2018-04-24T03:32:56.120Z,5.93
2018-04-24T03:35:25.118Z,5.57
2018-04-24T03:37:53.480Z,5.97
2018-04-24T03:40:21.676Z,5.40
2018-04-24T03:42:49.985Z,6.13
2018-04-24T03:45:18.995Z,5.80
2018-04-24T03:47:47.972Z,5.57
2018-04-24T03:50:16.197Z,6.07
2018-04-24T03:52:45.210Z,5.80
2018-04-24T03:55:14.201Z,5.87
2018-04-24T03:57:43.201Z,5.70
2018-04-24T04:00:11.476Z,6.60
2018-04-24T04:02:39.722Z,6.43
2018-04-24T04:05:07.960Z,6.30
2018-04-24T04:07:36.232Z,6.13
2018-04-24T04:10:04.442Z,6.40
2018-04-24T04:12:33.421Z,6.73
2018-04-24T04:15:01.661Z,6.80
2018-04-24T04:17:41.765Z,7.57
2018-04-24T04:20:21.997Z,7.77
2018-04-24T04:23:02.052Z,8.50
2018-04-24T04:25:31.048Z,5.77
2018-04-24T04:28:00.045Z,8.20
2018-04-24T04:30:28.252Z,8.50
2018-04-24T04:32:57.244Z,9.23
2018-04-24T04:35:25.572Z,8.80
2018-04-24T04:37:53.797Z,9.57
2018-04-24T04:40:22.126Z,8.97
2018-04-24T04:42:51.229Z,13.60
2018-04-24T04:45:20.225Z,10.10
2018-04-24T04:47:49.278Z,9.30
2018-04-24T04:50:18.237Z,9.47
2018-04-24T04:52:47.269Z,10.00
2018-04-24T04:55:16.363Z,10.30
2018-04-24T04:57:45.425Z,9.83
2018-04-24T05:00:13.709Z,10.77
2018-04-24T05:02:42.978Z,10.50
2018-04-24T05:05:12.001Z,10.00
2018-04-24T05:07:40.994Z,9.70
2018-04-24T05:10:11.045Z,9.77
2018-04-24T05:12:40.045Z,9.30
2018-04-24T05:15:08.280Z,10.13
2018-04-24T05:17:37.480Z,9.10
2018-04-24T05:20:05.774Z,9.70
2018-04-24T05:22:34.008Z,8.33
2018-04-24T05:25:04.137Z,9.23
2018-04-24T05:27:32.417Z,9.47
2018-04-24T05:30:01.420Z,9.93
2018-04-24T05:32:30.411Z,9.73
2018-04-24T05:34:58.697Z,10.47
2018-04-24T05:37:26.938Z,6.27
2018-04-24T05:39:55.177Z,10.27
2018-04-24T05:42:23.419Z,10.13
2018-04-24T05:44:51.748Z,10.23
2018-04-24T05:47:20.364Z,10.20
2018-04-24T05:49:48.586Z,10.80
2018-04-24T05:52:16.861Z,10.20
2018-04-24T05:54:45.166Z,9.83
2018-04-24T05:57:13.477Z,10.03
2018-04-24T05:59:41.745Z,10.30
2018-04-24T06:02:10.776Z,9.53
2018-04-24T06:04:38.982Z,10.37
2018-04-24T06:07:07.222Z,10.40
2018-04-24T06:09:36.161Z,10.53
2018-04-24T06:12:04.401Z,10.80
2018-04-24T06:14:32.672Z,10.60
2018-04-24T06:17:01.681Z,9.77
2018-04-24T06:19:30.706Z,10.40
2018-04-24T06:21:59.770Z,11.33
2018-04-24T06:24:28.028Z,10.27
2018-04-24T06:26:56.265Z,10.30
2018-04-24T06:29:25.278Z,10.07
2018-04-24T06:31:53.497Z,10.83
2018-04-24T06:34:21.760Z,10.47
2018-04-24T06:36:50.758Z,10.27
2018-04-24T06:39:19.788Z,10.83
2018-04-24T06:41:48.021Z,10.80
2018-04-24T06:44:16.356Z,10.30
2018-04-24T06:46:45.375Z,11.10
2018-04-24T06:49:13.599Z,9.97
2018-04-24T06:51:41.869Z,10.43
2018-04-24T06:54:10.117Z,10.50
2018-04-24T06:56:39.129Z,11.40
2018-04-24T06:59:08.135Z,11.50
2018-04-24T07:01:37.156Z,12.03
2018-04-24T07:04:06.144Z,11.17
2018-04-24T07:06:35.137Z,10.57
2018-04-24T07:09:04.012Z,8.83
2018-04-24T07:11:32.245Z,11.20
2018-04-24T07:14:01.280Z,11.27
2018-04-24T07:16:29.535Z,11.27
2018-04-24T07:18:58.525Z,11.00
2018-04-24T07:21:26.813Z,11.73
2018-04-24T07:23:55.060Z,12.60
2018-04-24T07:26:23.277Z,11.00
2018-04-24T07:28:51.558Z,13.00
2018-04-24T07:31:19.790Z,12.27
2018-04-24T07:33:48.798Z,12.70
2018-04-24T07:36:17.801Z,11.20
2018-04-24T07:38:46.832Z,11.87
2018-04-24T07:41:15.069Z,11.97
2018-04-24T07:43:43.350Z,11.80
2018-04-24T07:46:11.605Z,11.97
2018-04-24T07:48:39.843Z,12.57
2018-04-24T07:51:08.127Z,12.17
2018-04-24T07:53:36.823Z,13.07
2018-04-24T07:56:05.066Z,12.57
2018-04-24T07:58:34.030Z,13.03
2018-04-24T08:01:03.032Z,12.97
2018-04-24T08:03:32.025Z,12.93
2018-04-24T08:06:00.250Z,13.00
2018-04-24T08:08:28.493Z,12.57
2018-04-24T08:10:56.713Z,13.37
2018-04-24T08:13:25.821Z,11.83
2018-04-24T08:15:54.834Z,13.13
2018-04-24T08:18:23.825Z,13.63
2018-04-24T08:20:52.841Z,13.43
2018-04-24T08:23:21.852Z,13.90
2018-04-24T08:25:50.833Z,14.50
2018-04-24T08:28:19.072Z,14.37
2018-04-24T08:30:47.318Z,14.67
2018-04-24T08:33:16.349Z,15.03
2018-04-24T08:35:45.355Z,14.20
2018-04-24T08:38:13.627Z,13.87
2018-04-24T08:40:42.708Z,13.63
2018-04-24T08:43:10.913Z,13.97
2018-04-24T08:45:39.162Z,14.07
2018-04-24T08:48:07.498Z,14.43
2018-04-24T08:50:35.696Z,14.47
2018-04-24T08:53:04.768Z,13.67
2018-04-24T08:55:33.061Z,14.47
2018-04-24T08:58:01.342Z,13.50
2018-04-24T09:00:29.560Z,12.80
2018-04-24T09:02:58.593Z,13.93
2018-04-24T09:05:26.874Z,13.17
2018-04-24T09:07:55.969Z,13.30
2018-04-24T09:10:25.091Z,12.43
2018-04-24T09:12:53.374Z,13.33
2018-04-24T09:15:22.401Z,13.23
2018-04-24T09:17:50.639Z,13.60
2018-04-24T09:20:19.126Z,13.53
2018-04-24T09:22:47.541Z,12.97
2018-04-24T09:25:15.911Z,12.83
2018-04-24T09:27:44.144Z,13.27
2018-04-24T09:30:12.394Z,13.27
2018-04-24T09:32:40.601Z,13.10
2018-04-24T09:35:09.687Z,12.37
2018-04-24T09:37:37.921Z,13.90
2018-04-24T09:40:06.160Z,13.47
2018-04-24T09:42:34.381Z,14.10
2018-04-24T09:45:02.610Z,14.27
2018-04-24T09:47:30.840Z,13.27
2018-04-24T09:49:59.903Z,9.17
2018-04-24T09:52:28.127Z,13.27
2018-04-24T09:54:57.117Z,13.90
2018-04-24T09:57:25.429Z,13.40
2018-04-24T09:59:54.441Z,13.60
2018-04-24T10:02:23.446Z,12.60
2018-04-24T10:04:52.433Z,13.73
2018-04-24T10:07:20.713Z,13.87
2018-04-24T10:09:48.900Z,12.83
2018-04-24T10:12:17.120Z,13.47
2018-04-24T10:14:46.114Z,13.30
2018-04-24T10:17:15.185Z,12.70
2018-04-24T10:19:43.573Z,12.37
2018-04-24T10:22:11.799Z,12.23
2018-04-24T10:24:40.799Z,13.17
2018-04-24T10:27:09.067Z,13.90
2018-04-24T10:29:37.333Z,12.70
2018-04-24T10:32:05.546Z,12.80
2018-04-24T10:34:33.794Z,13.73
2018-04-24T10:37:02.024Z,13.80
2018-04-24T10:39:30.275Z,12.87
2018-04-24T10:41:58.507Z,12.10
2018-04-24T10:44:26.736Z,13.93
2018-04-24T10:46:55.145Z,12.97
2018-04-24T10:49:23.357Z,12.27
2018-04-24T10:51:51.625Z,12.43
2018-04-24T10:54:20.577Z,13.17
2018-04-24T10:56:48.813Z,12.90
2018-04-24T10:59:17.080Z,11.50
2018-04-24T11:01:45.358Z,13.53
2018-04-24T11:04:13.545Z,13.10
2018-04-24T11:06:42.613Z,13.67
2018-04-24T11:09:11.837Z,13.10
2018-04-24T11:11:40.291Z,14.63
2018-04-24T11:14:08.658Z,15.03
2018-04-24T11:16:36.941Z,15.13
2018-04-24T11:19:07.314Z,15.60
2018-04-24T11:21:35.642Z,14.83
2018-04-24T11:24:04.679Z,15.13
2018-04-24T11:26:33.825Z,15.70
2018-04-24T11:29:02.046Z,17.03
2018-04-24T11:31:30.285Z,16.93
2018-04-24T11:33:58.505Z,17.03
2018-04-24T11:36:26.741Z,17.87
2018-04-24T11:38:54.990Z,17.87
2018-04-24T11:41:23.249Z,18.07
2018-04-24T11:43:51.503Z,16.43
2018-04-24T11:46:20.474Z,17.40
2018-04-24T11:48:48.721Z,16.50
2018-04-24T11:51:16.946Z,15.93
2018-04-24T11:53:45.199Z,13.30
2018-04-24T11:56:13.456Z,13.20
2018-04-24T11:58:41.737Z,12.50
2018-04-24T12:01:10.982Z,10.63
2018-04-24T12:03:39.419Z,12.00
2018-04-24T12:06:07.618Z,9.43
2018-04-24T12:08:35.905Z,9.90
2018-04-24T12:11:04.129Z,10.63
2018-04-24T12:13:33.641Z,11.00
2018-04-24T12:16:01.891Z,10.70
2018-04-24T12:18:30.124Z,9.67
2018-04-24T12:20:59.109Z,10.27
2018-04-24T12:23:28.134Z,10.13
2018-04-24T12:25:57.157Z,8.83
2018-04-24T12:28:26.402Z,8.40
2018-04-24T12:30:54.593Z,8.00
2018-04-24T12:33:24.751Z,8.27
2018-04-24T12:35:53.045Z,8.17
2018-04-24T12:38:21.225Z,8.73
2018-04-24T12:40:49.469Z,7.63
2018-04-24T12:43:19.146Z,7.60
2018-04-24T12:45:48.291Z,8.03
2018-04-24T12:48:17.884Z,7.47
2018-04-24T12:50:46.220Z,7.57
2018-04-24T12:53:17.451Z,7.40
2018-04-24T12:55:46.427Z,7.87
2018-04-24T12:58:14.759Z,7.10
2018-04-24T13:00:43.057Z,8.13
2018-04-24T13:03:11.399Z,6.87
2018-04-24T13:05:40.045Z,7.90
2018-04-24T14:30:06.535Z,12.03
2018-04-24T14:32:35.814Z,12.60
2018-04-24T14:35:05.133Z,11.27
2018-04-24T14:37:33.551Z,11.30
2018-04-24T14:40:01.957Z,10.43
2018-04-24T14:42:32.977Z,10.80
2018-04-24T14:45:02.942Z,10.97
2018-04-24T14:47:31.794Z,9.80
2018-04-24T14:50:01.211Z,10.50
2018-04-24T14:52:29.613Z,9.03
2018-04-24T14:54:57.935Z,8.90
2018-04-24T14:57:26.308Z,9.23
2018-04-24T14:59:56.917Z,9.57
2018-04-24T15:02:28.732Z,8.87
2018-04-24T15:04:57.045Z,8.50
2018-04-24T15:07:26.051Z,8.37
2018-04-24T15:09:55.057Z,8.23
2018-04-24T15:12:25.415Z,5.30
2018-04-24T15:14:55.215Z,7.73
2018-04-24T15:17:24.207Z,8.47
2018-04-24T15:19:52.434Z,8.83
2018-04-24T15:22:24.119Z,7.90
2018-04-24T15:24:52.325Z,8.03
2018-04-24T15:27:20.570Z,7.97
2018-04-24T15:29:49.579Z,7.37
2018-04-24T15:32:17.797Z,8.97
2018-04-24T15:34:46.044Z,8.13
2018-04-24T15:37:15.525Z,8.17
2018-04-24T15:39:44.665Z,8.20
2018-04-24T15:42:13.003Z,9.10
2018-04-24T15:44:41.211Z,7.20
2018-04-24T15:47:09.605Z,8.10
2018-04-24T15:49:37.843Z,7.33
2018-04-24T15:52:06.204Z,7.00
2018-04-24T15:54:34.418Z,7.13
2018-04-24T15:59:35.905Z,7.97
2018-04-24T16:02:04.212Z,6.53
2018-04-24T16:04:32.467Z,6.57
2018-04-24T16:07:00.790Z,6.73
2018-04-24T16:09:29.758Z,6.73
2018-04-24T16:11:58.809Z,6.53
2018-04-24T16:14:27.016Z,6.93
2018-04-24T16:16:55.254Z,6.37
2018-04-24T16:19:23.550Z,6.10
2018-04-24T16:21:52.469Z,6.63
2018-04-24T16:24:21.477Z,6.60
2018-04-24T16:26:49.731Z,6.50
2018-04-24T16:29:17.940Z,5.90
2018-04-24T16:31:46.202Z,5.87
2018-04-24T16:34:14.450Z,5.77
2018-04-24T16:36:42.681Z,6.30
2018-04-24T16:39:10.914Z,7.00
2018-04-24T16:41:39.191Z,6.87
2018-04-24T16:44:08.215Z,6.30
2018-04-24T16:46:36.465Z,6.30
2018-04-24T16:49:05.523Z,5.67
2018-04-24T16:51:35.394Z,6.20
2018-04-24T16:54:04.513Z,5.87
2018-04-24T16:56:34.547Z,6.03
2018-04-24T16:59:02.774Z,6.03
2018-04-24T17:01:31.794Z,6.20
2018-04-24T17:04:00.898Z,4.73
2018-04-24T17:06:29.119Z,5.93
2018-04-24T17:08:58.869Z,6.30
2018-04-24T17:11:28.543Z,6.80
2018-04-24T17:13:56.809Z,6.60
2018-04-24T17:16:25.024Z,6.50
2018-04-24T17:18:53.245Z,6.80
2018-04-24T17:21:21.549Z,5.03
2018-04-24T17:23:50.577Z,6.43
2018-04-24T17:26:18.762Z,5.33
2018-04-24T17:28:47.079Z,6.10
2018-04-24T17:31:15.344Z,5.00
2018-04-24T17:33:43.573Z,5.50
2018-04-24T17:36:12.696Z,4.60
2018-04-24T17:38:40.955Z,5.03
2018-04-24T17:41:10.323Z,4.40
2018-04-24T17:43:38.903Z,5.53
2018-04-24T17:46:07.104Z,5.10
2018-04-24T17:48:35.337Z,5.00
2018-04-24T17:51:03.568Z,4.80
2018-04-24T17:53:32.713Z,4.37
2018-04-24T17:56:01.605Z,4.67
2018-04-24T17:58:30.625Z,4.53
2018-04-24T18:01:00.425Z,4.90
2018-04-24T18:03:29.475Z,4.83
2018-04-24T18:05:57.701Z,4.90
2018-04-24T18:08:25.932Z,5.20
2018-04-24T18:10:54.169Z,4.90
2018-04-24T18:13:22.393Z,4.40
2018-04-24T18:15:51.382Z,4.60
2018-04-24T18:18:20.398Z,5.10
2018-04-24T18:20:48.665Z,4.83
2018-04-24T18:23:16.977Z,4.47
2018-04-24T18:25:46.028Z,4.57
2018-04-24T18:28:15.774Z,4.70
2018-04-24T18:30:45.274Z,4.87
2018-04-24T18:33:13.757Z,4.57
2018-04-24T18:35:42.086Z,3.47
2018-04-24T18:38:10.498Z,4.27
2018-04-24T18:40:39.719Z,4.20
2018-04-24T18:43:07.997Z,4.63
2018-04-24T18:45:37.037Z,4.30
2018-04-24T18:48:05.273Z,4.60
2018-04-24T18:50:36.561Z,5.00
2018-04-24T18:53:06.355Z,5.00
2018-04-24T18:55:34.514Z,3.83
2018-04-24T18:58:07.358Z,4.40
2018-04-24T19:00:35.633Z,4.50
2018-04-24T19:03:03.847Z,4.20
2018-04-24T19:05:32.909Z,4.00
2018-04-24T19:08:01.100Z,4.57
2018-04-24T19:10:35.686Z,5.33
2018-04-24T19:13:04.074Z,4.60
2018-04-24T19:15:34.046Z,4.53
2018-04-24T19:18:02.261Z,4.33
2018-04-24T19:20:31.248Z,4.23
2018-04-24T19:22:59.465Z,4.30
2018-04-24T19:25:34.161Z,4.30
2018-04-24T19:28:02.774Z,5.00
2018-04-24T19:30:31.711Z,4.87
2018-04-24T19:33:00.173Z,4.57
2018-04-24T19:35:29.105Z,5.50
2018-04-24T19:37:58.098Z,4.90
2018-04-24T19:40:32.017Z,4.80
2018-04-24T19:43:00.258Z,4.87
2018-04-24T19:45:28.891Z,4.77
2018-04-24T19:47:57.095Z,5.43
2018-04-24T19:50:25.862Z,4.40
2018-04-24T19:52:54.093Z,3.97
2018-04-24T19:55:25.764Z,4.53
2018-04-24T19:57:54.003Z,4.37
2018-04-24T20:00:23.391Z,5.10
2018-04-24T20:02:51.618Z,5.67
2018-04-24T20:05:20.710Z,5.10
2018-04-24T20:07:48.948Z,5.40
2018-04-24T20:10:17.161Z,4.40
2018-04-24T20:12:45.440Z,4.53
2018-04-24T20:15:13.787Z,4.70
2018-04-24T20:17:41.997Z,4.53
2018-04-24T20:20:10.237Z,4.47
2018-04-24T20:22:38.474Z,4.23
2018-04-24T20:25:06.743Z,4.87
2018-04-24T20:27:34.977Z,4.00
2018-04-24T20:30:03.217Z,4.30
2018-04-24T20:32:31.523Z,4.10
2018-04-24T20:34:59.766Z,3.83
2018-04-24T20:37:29.920Z,4.07
2018-04-24T20:39:58.123Z,3.60
2018-04-24T20:42:26.501Z,4.00
2018-04-24T20:44:54.739Z,4.27
2018-04-24T20:47:23.735Z,4.23
2018-04-24T20:49:52.726Z,3.80
2018-04-24T20:52:20.948Z,4.00
2018-04-24T20:54:49.261Z,3.93
2018-04-24T20:57:17.486Z,4.23
2018-04-24T20:59:45.719Z,3.40
2018-04-24T21:02:13.987Z,4.57
2018-04-24T21:04:42.185Z,4.83
2018-04-24T21:07:10.433Z,3.80
2018-04-24T21:09:38.648Z,4.17
2018-04-24T21:12:07.686Z,4.60
2018-04-24T21:14:35.916Z,3.43
2018-04-24T21:17:04.125Z,4.30
2018-04-24T21:19:33.342Z,3.80
2018-04-24T21:22:01.457Z,3.80
2018-04-24T21:24:30.401Z,4.50
2018-04-24T21:26:59.145Z,4.03
2018-04-24T21:29:27.371Z,4.63
2018-04-24T21:31:55.597Z,5.23
2018-04-24T21:34:24.588Z,7.57
2018-04-24T21:36:52.825Z,3.90
2018-04-24T21:39:21.054Z,4.57
2018-04-24T21:41:49.288Z,4.80
2018-04-24T21:44:21.038Z,4.50
2018-04-24T21:46:49.250Z,4.77
2018-04-24T21:49:17.480Z,4.87
2018-04-24T21:51:45.711Z,4.70
2018-04-24T21:54:14.703Z,4.17
2018-04-24T21:56:42.937Z,4.80
2018-04-24T21:59:11.180Z,4.50
2018-04-24T22:01:39.414Z,4.60
2018-04-24T22:04:07.641Z,3.00
2018-04-24T22:06:35.930Z,4.93
2018-04-24T22:09:05.701Z,4.00
2018-04-24T22:11:33.925Z,4.07
2018-04-24T22:14:02.159Z,4.17
2018-04-24T22:16:31.161Z,4.30
2018-04-24T22:19:00.149Z,4.40
2018-04-24T22:21:28.380Z,3.83
2018-04-24T22:23:56.597Z,4.63
2018-04-24T22:26:24.804Z,4.03
2018-04-24T22:28:53.057Z,4.73
2018-04-24T22:31:21.283Z,4.13
2018-04-24T22:33:49.504Z,3.47
2018-04-24T22:36:17.720Z,4.00
2018-04-24T22:38:45.971Z,4.33
2018-04-24T22:41:14.979Z,4.10
2018-04-24T22:43:43.232Z,4.00
2018-04-24T22:46:11.457Z,4.30
2018-04-24T22:48:40.451Z,3.80
2018-04-24T22:51:09.444Z,3.93
2018-04-24T22:53:37.687Z,4.10
2018-04-24T22:56:05.939Z,4.57
2018-04-24T22:58:34.125Z,4.23
2018-04-24T23:01:03.125Z,4.83
2018-04-24T23:03:32.110Z,4.57
2018-04-24T23:06:00.366Z,4.50
2018-04-24T23:08:28.609Z,4.67
2018-04-24T23:11:09.413Z,4.27
2018-04-24T23:13:55.505Z,4.63
2018-04-24T23:16:41.598Z,4.60
2018-04-24T23:19:27.869Z,4.97
2018-04-24T23:22:01.798Z,5.43
2018-04-24T23:24:30.021Z,5.23
2018-04-24T23:26:58.250Z,6.93
2018-04-24T23:29:26.473Z,6.63
2018-04-24T23:31:54.701Z,10.03
2018-04-24T23:34:23.714Z,10.90
2018-04-24T23:36:51.950Z,13.13
2018-04-24T23:39:20.193Z,13.57
2018-04-24T23:41:48.433Z,13.17
2018-04-24T23:44:16.652Z,13.73
2018-04-24T23:46:45.644Z,13.40
2018-04-24T23:49:13.869Z,14.23
2018-04-24T23:51:42.099Z,14.57
2018-04-24T23:54:10.341Z,16.10
2018-04-24T23:56:38.588Z,16.47
2018-04-24T23:59:07.186Z,17.47
